This is the latest recevied weather packets stored in our database for station/object AI5YA-13. If no packets are shown the sender has not sent any weather packets the latest 10 day(s).
| Time | Temp. | Humidity | Pressure | Rain* | Wind** | Luminosity | Snow |
|---|---|---|---|---|---|---|---|
| 1777683500 | 11.11° C | 86% | 1019.3 hPa | 0 mm | - | 13 W/m² | - |
| 1777683198 | 11.11° C | 85% | 1019.3 hPa | 0 mm | - | 12 W/m² | - |
| 1777682895 | 11.67° C | 85% | 1019.3 hPa | 0 mm | - | 16 W/m² | - |
| 1777682591 | 11.67° C | 84% | 1019.3 hPa | 0 mm | - | 18 W/m² | - |
| 1777682289 | 11.67° C | 84% | 1019.3 hPa | 0 mm | - | 23 W/m² | - |
| 1777681986 | 11.67° C | 84% | 1019.3 hPa | 0 mm | - | 36 W/m² | - |
| 1777681681 | 11.67° C | 85% | 1018.8 hPa | 0 mm | - | 46 W/m² | - |
| 1777681379 | 11.11° C | 85% | 1019.2 hPa | 0 mm | - | 30 W/m² | - |
| 1777681076 | 11.11° C | 85% | 1018.9 hPa | 0 mm | - | 32 W/m² | - |
| 1777680775 | 11.67° C | 84% | 1019.2 hPa | 0 mm | - | 40 W/m² | - |
| 1777680472 | 11.67° C | 83% | 1019 hPa | 0 mm | - | 34 W/m² | - |
| 1777680170 | 11.67° C | 81% | 1019.2 hPa | 0 mm | - | 32 W/m² | - |
| 1777679864 | 11.67° C | 79% | 1019.2 hPa | 0 mm | - | 34 W/m² | - |
| 1777679561 | 12.22° C | 75% | 1019.2 hPa | 0 mm | - | 26 W/m² | - |
| 1777679257 | 12.78° C | 72% | 1019 hPa | 0 mm | - | 29 W/m² | - |
| 1777678954 | 13.33° C | 68% | 1018.9 hPa | 0 mm | - | 35 W/m² | - |
| 1777678652 | 13.33° C | 66% | 1018.4 hPa | 0 mm | - | 39 W/m² | - |
| 1777678349 | 13.33° C | 64% | 1018.8 hPa | 0 mm | - | 52 W/m² | - |
| 1777678044 | 13.33° C | 64% | 1018.6 hPa | 0 mm | - | 31 W/m² | - |
| 1777677742 | 13.33° C | 63% | 1018.4 hPa | 0 mm | - | 38 W/m² | - |
| 1777677440 | 13.33° C | 63% | 1018.4 hPa | 0 mm | - | 58 W/m² | - |
| 1777677138 | 13.33° C | 63% | 1017.8 hPa | 0 mm | - | 55 W/m² | - |
| 1777676836 | 13.33° C | 62% | 1018.1 hPa | 0 mm | - | 48 W/m² | - |
| 1777676534 | 13.33° C | 63% | 1018 hPa | 0 mm | - | 59 W/m² | - |
| 1777676231 | 12.78° C | 65% | 1018 hPa | 0 mm | - | 71 W/m² | - |
* Rain latest hour (hover to see other rain measurements)
** Current wind speed in m/s (hover to see current wind gust speed)